PWSweather.com
Personal Weather Stations
Station Observations
PENICUIKWS
PenicuikGB

PenicuikGB

Lat: 55.830932, Lon: -3.224533000000065

Elevation: 166

Station Type: Fine Offset

http://weather.penicuik.org

High Low Average
Temperature 43.9°F6.6°C 34.5°F1.4°C 39.1°F3.9°C
Dew Point 40.1°F4.5°C 31.3°F-0.4°C 36.3°F2.4°C
Winds 4.6 mph 7.4 kmh 0.5 mph 0.8 kmh 2.0 mph SSE3.2 kmh SSE
Wind Gusts 8.3 mph13.4 kmh 1.6 mph2.6 kmh 4.0 mph6.4 kmh
Humidity 94% 83% 90%
Pressure 29.25 in990.5 mb 28.63 in969.5 mb -
Precipitation 0.51 in13.0 mm - -
Hour Temp Dew Point Humidity Winds Wind Gusts Pressure Precip Precip Rate Daily Precip Total
12:00 AM 39.4°F4.1°C 36.7°F2.6°C 90% 3.4 mph N5.5 kmh N 5.4 mph8.7 kmh 28.64 in969.9 mb 0.01 in0.3 mm 0.00 in0.0 mm 0.01 in0.3 mm
12:30 AM 39.4°F4.1°C 37.0°F2.8°C 91% 2.7 mph NE4.3 kmh NE 3.8 mph6.1 kmh 28.63 in969.5 mb 0.02 in0.5 mm 0.02 in0.5 mm 0.01 in0.3 mm
12:45 AM 39.4°F4.1°C 37.3°F2.9°C 92% 2.6 mph NNE4.2 kmh NNE 4.5 mph7.2 kmh 28.63 in969.5 mb 0.01 in0.3 mm 0.00 in0.0 mm 0.01 in0.3 mm
01:00 AM 39.4°F4.1°C 37.3°F2.9°C 92% 2.0 mph NNE3.2 kmh NNE 3.8 mph6.1 kmh 28.64 in969.9 mb 0.01 in0.3 mm 0.00 in0.0 mm 0.01 in0.3 mm
01:15 AM 40.1°F4.5°C 38.2°F3.4°C 93% 1.5 mph NE2.4 kmh NE 2.2 mph3.5 kmh 28.66 in970.5 mb 0.00 in0.0 mm 0.00 in0.0 mm 0.01 in0.3 mm
01:30 AM 40.1°F4.5°C 38.2°F3.4°C 93% 2.6 mph NNE4.2 kmh NNE 4.5 mph7.2 kmh 28.69 in971.6 mb 0.01 in0.3 mm 0.04 in1.0 mm 0.02 in0.5 mm
01:45 AM 38.7°F3.7°C 36.8°F2.7°C 93% 4.6 mph NE7.4 kmh NE 6.0 mph9.7 kmh 28.72 in972.6 mb 0.01 in0.3 mm 0.00 in0.0 mm 0.02 in0.5 mm
02:00 AM 37.6°F3.1°C 35.7°F2.1°C 93% 2.5 mph NNE4.0 kmh NNE 3.8 mph6.1 kmh 28.75 in973.6 mb 0.04 in1.0 mm 0.04 in1.0 mm 0.05 in1.3 mm
02:30 AM 35.2°F1.8°C 32.3°F0.2°C 89% 3.1 mph NE5.0 kmh NE 4.5 mph7.2 kmh 28.80 in975.3 mb 0.05 in1.3 mm 0.02 in0.5 mm 0.07 in1.8 mm
02:45 AM 34.7°F1.5°C 31.5°F-0.3°C 88% 3.2 mph NE5.1 kmh NE 5.4 mph8.7 kmh 28.83 in976.3 mb 0.04 in1.0 mm 0.00 in0.0 mm 0.07 in1.8 mm
03:00 AM 34.5°F1.4°C 31.3°F-0.4°C 88% 4.2 mph NE6.8 kmh NE 6.0 mph9.7 kmh 28.84 in976.6 mb 0.02 in0.5 mm 0.00 in0.0 mm 0.07 in1.8 mm
03:15 AM 34.5°F1.4°C 31.3°F-0.4°C 88% 3.0 mph NE4.8 kmh NE 4.5 mph7.2 kmh 28.86 in977.3 mb 0.01 in0.3 mm 0.00 in0.0 mm 0.07 in1.8 mm
03:30 AM 34.7°F1.5°C 31.5°F-0.3°C 88% 3.0 mph NNE4.8 kmh NNE 5.4 mph8.7 kmh 28.88 in978.0 mb 0.00 in0.0 mm 0.00 in0.0 mm 0.07 in1.8 mm
03:45 AM 35.2°F1.8°C 32.3°F0.2°C 89% 3.5 mph NE5.6 kmh NE 4.5 mph7.2 kmh 28.89 in978.3 mb 0.02 in0.5 mm 0.08 in2.0 mm 0.09 in2.3 mm
04:00 AM 35.2°F1.8°C 32.3°F0.2°C 89% 2.1 mph NE3.4 kmh NE 3.1 mph5.0 kmh 28.89 in978.3 mb 0.07 in1.8 mm 0.07 in1.8 mm 0.14 in3.6 mm
04:15 AM 35.4°F1.9°C 32.5°F0.3°C 89% 2.8 mph NE4.5 kmh NE 4.5 mph7.2 kmh 28.91 in979.0 mb 0.09 in2.3 mm 0.08 in2.0 mm 0.17 in4.3 mm
04:30 AM 35.6°F2.0°C 32.4°F0.2°C 88% 3.1 mph ENE5.0 kmh ENE 4.5 mph7.2 kmh 28.91 in979.0 mb 0.12 in3.0 mm 0.12 in3.0 mm 0.19 in4.8 mm
04:45 AM 36.0°F2.2°C 32.8°F0.4°C 88% 1.8 mph NE2.9 kmh NE 2.2 mph3.5 kmh 28.92 in979.3 mb 0.11 in2.8 mm 0.00 in0.0 mm 0.21 in5.3 mm
05:15 AM 36.3°F2.4°C 33.1°F0.6°C 88% 2.1 mph NE3.4 kmh NE 2.2 mph3.5 kmh 28.94 in980.0 mb 0.07 in1.8 mm 0.00 in0.0 mm 0.24 in6.1 mm
05:30 AM 36.5°F2.5°C 33.6°F0.9°C 89% 1.5 mph NE2.4 kmh NE 3.1 mph5.0 kmh 28.95 in980.4 mb 0.06 in1.5 mm 0.00 in0.0 mm 0.25 in6.4 mm
05:45 AM 36.5°F2.5°C 33.6°F0.9°C 89% 1.4 mph SSE2.3 kmh SSE 1.6 mph2.6 kmh 28.95 in980.4 mb 0.04 in1.0 mm 0.00 in0.0 mm 0.25 in6.4 mm
06:00 AM 36.3°F2.4°C 33.1°F0.6°C 88% 0.6 mph SW1.0 kmh SW 1.6 mph2.6 kmh 28.96 in980.7 mb 0.02 in0.5 mm 0.00 in0.0 mm 0.25 in6.4 mm
06:15 AM 35.8°F2.1°C 32.6°F0.3°C 88% 1.2 mph S1.9 kmh S 2.2 mph3.5 kmh 28.98 in981.4 mb 0.02 in0.5 mm 0.00 in0.0 mm 0.26 in6.6 mm
06:30 AM 35.6°F2.0°C 32.4°F0.2°C 88% 1.9 mph SSW3.1 kmh SSW 4.5 mph7.2 kmh 28.98 in981.4 mb 0.01 in0.3 mm 0.00 in0.0 mm 0.26 in6.6 mm
06:45 AM 36.0°F2.2°C 33.0°F0.6°C 89% 2.5 mph NW4.0 kmh NW 3.8 mph6.1 kmh 28.98 in981.4 mb 0.01 in0.3 mm 0.00 in0.0 mm 0.26 in6.6 mm
07:00 AM 36.0°F2.2°C 33.0°F0.6°C 89% 2.1 mph SW3.4 kmh SW 3.1 mph5.0 kmh 28.99 in981.7 mb 0.01 in0.3 mm 0.00 in0.0 mm 0.26 in6.6 mm
07:15 AM 36.3°F2.4°C 33.4°F0.8°C 89% 1.3 mph S2.1 kmh S 2.2 mph3.5 kmh 29.00 in982.1 mb 0.00 in0.0 mm 0.00 in0.0 mm 0.26 in6.6 mm
07:30 AM 37.4°F3.0°C 35.6°F2.0°C 93% 2.4 mph SSE3.9 kmh SSE 3.8 mph6.1 kmh 29.01 in982.4 mb 0.00 in0.0 mm 0.00 in0.0 mm 0.26 in6.6 mm
08:00 AM 37.6°F3.1°C 36.0°F2.2°C 94% 2.4 mph SW3.9 kmh SW 4.5 mph7.2 kmh 29.02 in982.7 mb 0.01 in0.3 mm 0.02 in0.5 mm 0.27 in6.9 mm
08:15 AM 37.8°F3.2°C 36.2°F2.3°C 94% 1.8 mph S2.9 kmh S 3.1 mph5.0 kmh 29.03 in983.1 mb 0.01 in0.3 mm 0.00 in0.0 mm 0.27 in6.9 mm
08:30 AM 36.7°F2.6°C 33.8°F1.0°C 89% 1.9 mph WSW3.1 kmh WSW 3.8 mph6.1 kmh 29.05 in983.7 mb 0.01 in0.3 mm 0.00 in0.0 mm 0.27 in6.9 mm
08:45 AM 36.5°F2.5°C 33.6°F0.9°C 89% 2.2 mph SW3.5 kmh SW 4.5 mph7.2 kmh 29.06 in984.1 mb 0.01 in0.3 mm 0.00 in0.0 mm 0.27 in6.9 mm
09:00 AM 36.0°F2.2°C 33.0°F0.6°C 89% 1.3 mph NNE2.1 kmh NNE 2.2 mph3.5 kmh 29.06 in984.1 mb 0.00 in0.0 mm 0.00 in0.0 mm 0.27 in6.9 mm
09:15 AM 36.1°F2.3°C 33.2°F0.7°C 89% 0.8 mph W1.3 kmh W 1.6 mph2.6 kmh 29.06 in984.1 mb 0.00 in0.0 mm 0.00 in0.0 mm 0.27 in6.9 mm
09:30 AM 36.7°F2.6°C 34.0°F1.1°C 90% 2.0 mph S3.2 kmh S 2.2 mph3.5 kmh 29.07 in984.4 mb 0.01 in0.3 mm 0.04 in1.0 mm 0.28 in7.1 mm
09:45 AM 37.6°F3.1°C 36.0°F2.2°C 94% 2.0 mph WSW3.2 kmh WSW 3.1 mph5.0 kmh 29.09 in985.1 mb 0.01 in0.3 mm 0.00 in0.0 mm 0.28 in7.1 mm
10:00 AM 37.9°F3.3°C 36.4°F2.4°C 94% 2.4 mph WSW3.9 kmh WSW 3.1 mph5.0 kmh 29.09 in985.1 mb 0.01 in0.3 mm 0.00 in0.0 mm 0.28 in7.1 mm
10:15 AM 39.0°F3.9°C 37.4°F3.0°C 94% 2.5 mph SSW4.0 kmh SSW 3.1 mph5.0 kmh 29.10 in985.4 mb 0.02 in0.5 mm 0.04 in1.0 mm 0.30 in7.6 mm
10:30 AM 41.2°F5.1°C 39.3°F4.1°C 93% 1.7 mph SSE2.7 kmh SSE 3.8 mph6.1 kmh 29.11 in985.8 mb 0.02 in0.5 mm 0.00 in0.0 mm 0.31 in7.9 mm
10:45 AM 41.2°F5.1°C 39.3°F4.1°C 93% 3.2 mph S5.1 kmh S 6.0 mph9.7 kmh 29.11 in985.8 mb 0.02 in0.5 mm 0.00 in0.0 mm 0.31 in7.9 mm
11:00 AM 41.2°F5.1°C 39.0°F3.9°C 92% 2.5 mph SW4.0 kmh SW 4.5 mph7.2 kmh 29.12 in986.1 mb 0.02 in0.5 mm 0.00 in0.0 mm 0.31 in7.9 mm
11:15 AM 41.2°F5.1°C 39.0°F3.9°C 92% 3.2 mph SSE5.1 kmh SSE 6.0 mph9.7 kmh 29.12 in986.1 mb 0.01 in0.3 mm 0.00 in0.0 mm 0.31 in7.9 mm
11:30 AM 41.9°F5.5°C 39.5°F4.2°C 91% 4.4 mph S7.1 kmh S 8.3 mph13.4 kmh 29.13 in986.5 mb 0.00 in0.0 mm 0.00 in0.0 mm 0.31 in7.9 mm
12:00 PM 43.9°F6.6°C 39.1°F3.9°C 83% 1.9 mph SW3.1 kmh SW 4.5 mph7.2 kmh 29.14 in986.8 mb 0.00 in0.0 mm 0.00 in0.0 mm 0.31 in7.9 mm
12:15 PM 42.1°F5.6°C 37.9°F3.3°C 85% 3.1 mph SSE5.0 kmh SSE 3.8 mph6.1 kmh 29.15 in987.1 mb 0.04 in1.0 mm 0.16 in4.1 mm 0.34 in8.6 mm
12:30 PM 41.5°F5.3°C 37.7°F3.2°C 86% 3.3 mph WSW5.3 kmh WSW 5.4 mph8.7 kmh 29.14 in986.8 mb 0.04 in1.0 mm 0.00 in0.0 mm 0.34 in8.6 mm
01:15 PM 42.4°F5.8°C 39.4°F4.1°C 89% 2.9 mph SW4.7 kmh SW 6.0 mph9.7 kmh 29.16 in987.5 mb 0.00 in0.0 mm 0.00 in0.0 mm 0.34 in8.6 mm
01:30 PM 42.1°F5.6°C 38.8°F3.8°C 88% 2.7 mph E4.3 kmh E 4.5 mph7.2 kmh 29.16 in987.5 mb 0.00 in0.0 mm 0.00 in0.0 mm 0.34 in8.6 mm
01:45 PM 42.1°F5.6°C 38.8°F3.8°C 88% 2.8 mph WSW4.5 kmh WSW 6.9 mph11.1 kmh 29.16 in987.5 mb 0.00 in0.0 mm 0.00 in0.0 mm 0.34 in8.6 mm
02:00 PM 42.4°F5.8°C 39.4°F4.1°C 89% 2.6 mph SSE4.2 kmh SSE 5.4 mph8.7 kmh 29.16 in987.5 mb 0.00 in0.0 mm 0.00 in0.0 mm 0.34 in8.6 mm
02:15 PM 42.4°F5.8°C 39.4°F4.1°C 89% 3.5 mph WSW5.6 kmh WSW 6.9 mph11.1 kmh 29.16 in987.5 mb 0.00 in0.0 mm 0.00 in0.0 mm 0.34 in8.6 mm
02:30 PM 42.6°F5.9°C 39.6°F4.2°C 89% 3.4 mph WSW5.5 kmh WSW 5.4 mph8.7 kmh 29.17 in987.8 mb 0.00 in0.0 mm 0.00 in0.0 mm 0.34 in8.6 mm
02:45 PM 42.6°F5.9°C 39.3°F4.1°C 88% 2.3 mph N3.7 kmh N 3.8 mph6.1 kmh 29.17 in987.8 mb 0.00 in0.0 mm 0.00 in0.0 mm 0.34 in8.6 mm
03:15 PM 42.8°F6.0°C 39.5°F4.2°C 88% 3.2 mph W5.1 kmh W 6.0 mph9.7 kmh 29.16 in987.5 mb 0.00 in0.0 mm 0.00 in0.0 mm 0.34 in8.6 mm
03:30 PM 42.6°F5.9°C 39.6°F4.2°C 89% 2.5 mph SE4.0 kmh SE 3.8 mph6.1 kmh 29.16 in987.5 mb 0.00 in0.0 mm 0.00 in0.0 mm 0.34 in8.6 mm
03:45 PM 42.4°F5.8°C 39.4°F4.1°C 89% 2.1 mph WNW3.4 kmh WNW 3.1 mph5.0 kmh 29.16 in987.5 mb 0.00 in0.0 mm 0.00 in0.0 mm 0.34 in8.6 mm
04:00 PM 42.4°F5.8°C 39.4°F4.1°C 89% 3.4 mph W5.5 kmh W 6.0 mph9.7 kmh 29.17 in987.8 mb 0.01 in0.3 mm 0.01 in0.3 mm 0.35 in8.9 mm
04:30 PM 42.1°F5.6°C 39.4°F4.1°C 90% 2.1 mph WSW3.4 kmh WSW 5.4 mph8.7 kmh 29.16 in987.5 mb 0.06 in1.5 mm 0.10 in2.5 mm 0.40 in10.2 mm
04:45 PM 41.5°F5.3°C 38.8°F3.8°C 90% 1.4 mph N2.3 kmh N 3.8 mph6.1 kmh 29.16 in987.5 mb 0.06 in1.5 mm 0.00 in0.0 mm 0.40 in10.2 mm
05:00 PM 41.2°F5.1°C 38.5°F3.6°C 90% 0.9 mph W1.4 kmh W 2.2 mph3.5 kmh 29.15 in987.1 mb 0.05 in1.3 mm 0.00 in0.0 mm 0.40 in10.2 mm
05:15 PM 41.4°F5.2°C 38.7°F3.7°C 90% 0.9 mph NNW1.4 kmh NNW 3.1 mph5.0 kmh 29.15 in987.1 mb 0.02 in0.5 mm 0.00 in0.0 mm 0.41 in10.4 mm
05:30 PM 41.7°F5.4°C 39.3°F4.1°C 91% 1.0 mph SW1.6 kmh SW 3.1 mph5.0 kmh 29.15 in987.1 mb 0.02 in0.5 mm 0.00 in0.0 mm 0.43 in10.9 mm
06:00 PM 42.3°F5.7°C 40.1°F4.5°C 92% 3.6 mph N5.8 kmh N 6.9 mph11.1 kmh 29.16 in987.5 mb 0.07 in1.8 mm 0.10 in2.5 mm 0.47 in11.9 mm
06:30 PM 41.2°F5.1°C 39.0°F3.9°C 92% 0.8 mph W1.3 kmh W 3.1 mph5.0 kmh 29.17 in987.8 mb 0.06 in1.5 mm 0.00 in0.0 mm 0.50 in12.7 mm
06:45 PM 40.6°F4.8°C 38.8°F3.8°C 93% 1.0 mph SW1.6 kmh SW 1.6 mph2.6 kmh 29.18 in988.1 mb 0.05 in1.3 mm 0.00 in0.0 mm 0.51 in13.0 mm
07:00 PM 40.3°F4.6°C 38.1°F3.4°C 92% 0.5 mph SW0.8 kmh SW 1.6 mph2.6 kmh 29.18 in988.1 mb 0.04 in1.0 mm 0.00 in0.0 mm 0.51 in13.0 mm
11:00 PM 41.2°F5.1°C 37.6°F3.1°C 87% 3.1 mph SE5.0 kmh SE 5.4 mph8.7 kmh 29.24 in990.2 mb 0.00 in0.0 mm 0.00 in0.0 mm 0.51 in13.0 mm
11:15 PM 41.0°F5.0°C 37.4°F3.0°C 87% 2.7 mph SSW4.3 kmh SSW 4.5 mph7.2 kmh 29.24 in990.2 mb 0.00 in0.0 mm 0.00 in0.0 mm 0.51 in13.0 mm
11:30 PM 41.0°F5.0°C 37.7°F3.2°C 88% 2.2 mph S3.5 kmh S 4.5 mph7.2 kmh 29.25 in990.5 mb 0.00 in0.0 mm 0.00 in0.0 mm 0.51 in13.0 mm